Time;durP1;ratioP1;P1;durP2;ratioP2;P2;SDS_P1;SDS_P2;PMS_P1;PMS_P2;Temp;Humidity;BMP_temperature;BMP_pressure;BME280_temperature;BME280_humidity;BME280_pressure;Samples;Min_cycle;Max_cycle;Signal;HPM_P1;HPM_P2
2021/03/18 00:02:08;;;;;;;14.98;2.33;;;25.40;22.90;;;;;;5038705;28;20073;-68
2021/03/18 00:04:35;;;;;;;9.93;2.20;;;25.50;22.20;;;;;;5037239;28;20077;-67
2021/03/18 00:07:02;;;;;;;16.25;2.50;;;25.40;23.10;;;;;;5035587;28;20148;-67
2021/03/18 00:09:29;;;;;;;12.43;1.77;;;25.40;23.60;;;;;;5042574;28;20166;-68
2021/03/18 00:11:55;;;;;;;12.07;2.30;;;25.30;22.70;;;;;;5041079;28;20077;-68
2021/03/18 00:14:24;;;;;;;14.30;2.10;;;25.10;23.00;;;;;;5037005;28;20076;-68
2021/03/18 00:16:51;;;;;;;12.35;1.95;;;25.10;23.70;;;;;;5035795;28;20430;-66
2021/03/18 00:19:18;;;;;;;13.90;1.85;;;25.00;23.30;;;;;;5038763;28;20074;-68
2021/03/18 00:21:48;;;;;;;10.50;2.05;;;24.50;23.80;;;;;;5037505;28;20085;-70
2021/03/18 00:24:15;;;;;;;9.13;2.63;;;24.40;24.00;;;;;;5021810;28;20074;-65
2021/03/18 00:26:42;;;;;;;11.45;2.42;;;24.50;23.40;;;;;;5038269;28;20539;-63
2021/03/18 00:29:08;;;;;;;12.05;2.50;;;24.60;23.40;;;;;;5038110;28;20098;-64
2021/03/18 00:31:36;;;;;;;12.98;2.53;;;24.60;23.00;;;;;;5041072;28;20414;-63
2021/03/18 00:34:03;;;;;;;13.25;2.20;;;24.70;23.40;;;;;;5038228;28;20082;-64
2021/03/18 00:36:33;;;;;;;14.18;2.00;;;24.70;24.40;;;;;;5042490;28;20437;-63
2021/03/18 00:39:07;;;;;;;19.85;2.88;;;24.70;24.60;;;;;;5035147;28;20101;-63
2021/03/18 00:41:36;;;;;;;11.32;1.85;;;24.70;24.50;;;;;;5036900;28;20080;-64
2021/03/18 00:44:04;;;;;;;14.60;2.67;;;24.70;24.20;;;;;;5039211;28;20069;-64
2021/03/18 00:46:32;;;;;;;10.60;2.10;;;24.60;24.70;;;;;;5038364;28;20077;-64
2021/03/18 00:49:00;;;;;;;15.40;2.15;;;24.50;24.40;;;;;;5037727;28;20121;-63
2021/03/18 00:51:26;;;;;;;21.90;2.58;;;24.40;25.00;;;;;;5020822;28;20232;-65
2021/03/18 00:53:53;;;;;;;11.90;2.25;;;24.10;25.30;;;;;;5043279;28;20127;-64
2021/03/18 00:56:21;;;;;;;9.55;2.10;;;24.10;25.30;;;;;;5038133;28;20078;-64
2021/03/18 00:58:49;;;;;;;10.55;2.05;;;23.90;25.40;;;;;;5042008;28;20153;-63
2021/03/18 01:01:24;;;;;;;11.63;2.58;;;23.70;25.40;;;;;;5041332;28;20131;-62
2021/03/18 01:03:51;;;;;;;12.05;2.33;;;23.50;26.10;;;;;;5036404;28;20072;-63
2021/03/18 01:06:29;;;;;;;19.58;2.83;;;23.50;26.10;;;;;;5036496;28;20077;-63
2021/03/18 01:08:57;;;;;;;15.43;2.22;;;23.50;26.30;;;;;;5037790;28;20121;-65
2021/03/18 01:11:30;;;;;;;7.75;2.50;;;23.50;26.00;;;;;;5019174;28;20105;-64
2021/03/18 01:14:03;;;;;;;13.27;2.17;;;23.40;26.20;;;;;;5022842;28;20105;-65
2021/03/18 01:16:33;;;;;;;10.65;2.20;;;23.30;26.30;;;;;;5038029;28;20061;-65
2021/03/18 01:19:03;;;;;;;10.50;2.05;;;23.40;26.60;;;;;;5039477;28;20085;-62
2021/03/18 01:21:38;;;;;;;11.68;2.20;;;23.40;25.70;;;;;;5040702;28;20072;-61
2021/03/18 01:24:06;;;;;;;10.38;2.60;;;23.30;25.90;;;;;;5019158;28;20080;-62
2021/03/18 01:26:34;;;;;;;12.05;2.50;;;23.20;26.50;;;;;;5033885;28;20066;-62
2021/03/18 01:29:02;;;;;;;10.93;2.22;;;23.00;26.50;;;;;;5036310;28;20180;-62
2021/03/18 01:31:29;;;;;;;12.05;2.10;;;22.90;26.70;;;;;;5038777;28;20127;-63
2021/03/18 01:33:55;;;;;;;22.88;2.58;;;22.70;27.00;;;;;;5036062;28;20078;-63
2021/03/18 01:36:23;;;;;;;14.07;2.63;;;22.60;27.30;;;;;;5017674;28;20097;-63
2021/03/18 01:38:50;;;;;;;10.07;2.17;;;22.40;27.40;;;;;;5035119;28;20157;-62
2021/03/18 01:41:18;;;;;;;11.18;2.20;;;22.30;27.60;;;;;;5035216;28;20492;-64
2021/03/18 01:43:46;;;;;;;11.43;2.47;;;22.20;27.70;;;;;;5038296;28;20518;-66
2021/03/18 01:46:13;;;;;;;15.55;2.63;;;22.10;27.90;;;;;;5033648;28;20070;-66
2021/03/18 01:48:41;;;;;;;14.40;2.50;;;22.10;28.00;;;;;;5015862;28;20442;-65
2021/03/18 01:51:08;;;;;;;19.75;2.50;;;21.90;28.00;;;;;;5038360;28;20073;-65
2021/03/18 01:53:35;;;;;;;20.92;2.78;;;21.80;28.20;;;;;;5035628;28;20082;-65
2021/03/18 01:56:04;;;;;;;11.07;2.40;;;21.70;28.40;;;;;;5039986;28;20103;-65
2021/03/18 01:58:32;;;;;;;22.10;2.88;;;21.60;29.00;;;;;;5022122;28;20069;-65
2021/03/18 02:01:02;;;;;;;17.55;2.83;;;21.50;29.00;;;;;;5037881;28;20235;-65
2021/03/18 02:03:29;;;;;;;15.95;3.10;;;21.40;28.80;;;;;;5035284;28;20081;-65
2021/03/18 02:05:55;;;;;;;16.85;3.10;;;21.40;28.80;;;;;;5042221;28;20070;-66
2021/03/18 02:08:22;;;;;;;19.70;3.47;;;21.30;29.20;;;;;;5018096;28;20098;-67
2021/03/18 02:10:51;;;;;;;12.10;2.67;;;21.20;29.30;;;;;;5031941;28;20078;-66
2021/03/18 02:13:19;;;;;;;11.18;2.83;;;21.10;29.50;;;;;;5019865;28;20081;-65
2021/03/18 02:15:46;;;;;;;18.13;3.47;;;21.00;29.60;;;;;;5036516;28;20164;-65
2021/03/18 02:18:39;;;;;;;14.05;3.13;;;20.90;29.80;;;;;;5035028;28;20077;-65
2021/03/18 02:21:15;;;;;;;17.08;3.65;;;20.80;30.00;;;;;;5040513;28;20089;-66
2021/03/18 02:24:07;;;;;;;21.05;3.50;;;20.70;30.30;;;;;;5036858;28;20548;-66
2021/03/18 02:27:01;;;;;;;15.63;3.28;;;20.60;30.50;;;;;;5033446;28;20074;-65
2021/03/18 02:30:05;;;;;;;15.38;3.20;;;20.50;30.70;;;;;;5034430;28;20089;-66
2021/03/18 02:32:40;;;;;;;25.27;3.25;;;20.40;31.20;;;;;;5036729;28;20069;-65
2021/03/18 02:35:23;;;;;;;24.65;3.75;;;20.20;31.40;;;;;;5039939;28;20088;-66
2021/03/18 02:38:00;;;;;;;23.40;4.05;;;20.10;31.60;;;;;;5034812;28;20407;-66
2021/03/18 02:40:29;;;;;;;21.77;4.15;;;20.10;31.80;;;;;;5017020;28;20077;-64
2021/03/18 02:42:59;;;;;;;23.40;3.67;;;20.00;32.00;;;;;;5017782;28;20182;-65
2021/03/18 02:45:31;;;;;;;19.48;4.07;;;19.90;32.00;;;;;;5033955;28;20135;-66
2021/03/18 02:48:01;;;;;;;23.55;4.10;;;19.90;32.40;;;;;;5035887;28;20109;-66
2021/03/18 02:50:30;;;;;;;16.67;4.60;;;19.80;32.60;;;;;;5019012;28;20173;-66
2021/03/18 02:53:00;;;;;;;23.67;4.20;;;19.70;33.00;;;;;;5040877;28;20109;-65
2021/03/18 02:55:27;;;;;;;21.77;4.38;;;19.60;33.40;;;;;;5034882;28;20128;-66
2021/03/18 02:57:55;;;;;;;24.92;4.20;;;19.60;33.90;;;;;;5032925;28;20077;-65
2021/03/18 03:00:23;;;;;;;31.48;4.63;;;19.50;33.20;;;;;;5034361;28;20454;-65
2021/03/18 03:02:50;;;;;;;37.85;4.50;;;19.50;33.00;;;;;;5036236;28;20085;-66
2021/03/18 03:05:21;;;;;;;35.38;4.95;;;19.50;32.90;;;;;;5017983;28;20070;-65
2021/03/18 03:07:49;;;;;;;31.58;4.68;;;19.40;33.10;;;;;;5037554;28;20090;-65
2021/03/18 03:10:19;;;;;;;35.55;5.03;;;19.40;33.20;;;;;;5034741;28;20090;-66
2021/03/18 03:12:47;;;;;;;33.85;5.75;;;19.30;33.50;;;;;;5035001;28;20074;-65
2021/03/18 03:15:14;;;;;;;28.77;5.53;;;19.30;33.90;;;;;;5018429;28;20082;-65
2021/03/18 03:17:42;;;;;;;34.35;4.88;;;19.20;34.20;;;;;;5037851;28;20074;-65
2021/03/18 03:20:11;;;;;;;43.35;4.93;;;19.20;34.50;;;;;;5021439;28;20143;-66
2021/03/18 03:22:39;;;;;;;26.83;5.25;;;19.20;34.70;;;;;;5036289;28;20111;-65
2021/03/18 03:25:09;;;;;;;33.20;5.68;;;19.10;35.30;;;;;;5044596;28;20178;-65
2021/03/18 03:27:37;;;;;;;19.80;4.70;;;19.10;35.50;;;;;;5035173;28;20098;-65
2021/03/18 03:30:08;;;;;;;35.92;5.22;;;19.00;35.50;;;;;;5040490;28;20074;-64
2021/03/18 03:32:35;;;;;;;35.38;5.60;;;19.00;36.10;;;;;;5021729;28;20085;-66
2021/03/18 03:35:04;;;;;;;30.98;5.95;;;19.00;36.30;;;;;;5038942;28;20081;-64
2021/03/18 03:37:30;;;;;;;47.60;6.75;;;18.90;36.40;;;;;;5022201;28;20078;-66
2021/03/18 03:39:57;;;;;;;29.15;6.47;;;18.90;37.10;;;;;;5040654;28;20070;-65
2021/03/18 03:42:24;;;;;;;29.88;6.35;;;18.80;38.00;;;;;;5039259;28;22671;-65
2021/03/18 03:44:51;;;;;;;29.95;6.00;;;18.70;37.70;;;;;;5043120;28;20074;-66
2021/03/18 03:47:19;;;;;;;21.73;5.40;;;18.80;37.50;;;;;;5038406;28;20207;-66
2021/03/18 03:49:46;;;;;;;19.73;5.03;;;18.70;37.80;;;;;;5027354;28;20070;-65
2021/03/18 03:52:28;;;;;;;26.17;5.40;;;18.70;38.30;;;;;;5039139;28;20141;-65
2021/03/18 03:55:03;;;;;;;24.88;5.18;;;18.70;38.90;;;;;;5040225;28;20070;-65
2021/03/18 03:57:38;;;;;;;22.55;5.55;;;18.70;39.40;;;;;;5039457;28;20077;-64
2021/03/18 04:00:08;;;;;;;35.67;5.18;;;18.60;39.60;;;;;;5040170;28;20519;-65
2021/03/18 04:02:36;;;;;;;27.80;4.43;;;18.60;40.00;;;;;;5043499;28;20077;-65
2021/03/18 04:05:06;;;;;;;22.20;4.50;;;18.50;40.30;;;;;;5035101;28;20074;-66
2021/03/18 04:07:37;;;;;;;28.25;4.70;;;18.50;40.60;;;;;;5041918;28;20092;-66
2021/03/18 04:10:06;;;;;;;19.60;4.35;;;18.50;40.70;;;;;;5033253;28;20073;-67
2021/03/18 04:12:36;;;;;;;27.60;4.38;;;18.40;41.00;;;;;;5038396;28;20077;-66
2021/03/18 04:15:08;;;;;;;21.77;3.80;;;18.30;41.40;;;;;;5035642;28;20153;-66
2021/03/18 04:17:38;;;;;;;20.38;4.25;;;18.30;41.60;;;;;;5042041;28;20077;-65
2021/03/18 04:20:10;;;;;;;19.83;4.03;;;18.20;41.40;;;;;;5038400;28;20104;-67
2021/03/18 04:22:40;;;;;;;19.42;6.20;;;18.20;41.40;;;;;;5036532;28;20135;-66
2021/03/18 04:25:09;;;;;;;24.83;7.75;;;18.10;41.70;;;;;;5036994;28;20170;-66
2021/03/18 04:27:36;;;;;;;30.08;10.85;;;18.00;42.20;;;;;;5035925;28;20101;-66
2021/03/18 04:30:06;;;;;;;43.30;13.57;;;18.00;42.10;;;;;;5042515;28;20116;-66
2021/03/18 04:32:33;;;;;;;35.15;15.63;;;17.90;42.30;;;;;;5037595;28;20081;-66
2021/03/18 04:35:01;;;;;;;39.83;16.73;;;17.80;42.70;;;;;;5038190;28;20073;-65
2021/03/18 04:37:28;;;;;;;43.13;16.40;;;17.80;43.10;;;;;;5035058;28;20168;-67
2021/03/18 04:39:55;;;;;;;41.08;16.40;;;17.70;42.80;;;;;;5042176;28;20083;-68
2021/03/18 04:42:22;;;;;;;40.45;14.73;;;17.70;42.80;;;;;;5035835;28;20066;-66
2021/03/18 04:44:50;;;;;;;45.17;15.60;;;17.60;43.20;;;;;;5038447;28;20077;-67
2021/03/18 04:47:18;;;;;;;34.58;13.68;;;17.50;43.40;;;;;;5020236;28;20523;-66
2021/03/18 04:49:47;;;;;;;37.05;13.07;;;17.50;43.50;;;;;;5035291;28;20173;-70
2021/03/18 04:52:19;;;;;;;36.45;13.38;;;17.40;43.60;;;;;;5006217;28;20470;-66
2021/03/18 04:54:46;;;;;;;31.90;13.45;;;17.40;44.10;;;;;;5037695;28;20156;-66
2021/03/18 04:57:18;;;;;;;40.33;12.98;;;17.40;44.10;;;;;;5022369;28;20135;-65
2021/03/18 04:59:47;;;;;;;34.95;13.73;;;17.30;44.10;;;;;;5037121;28;20158;-64
2021/03/18 05:02:15;;;;;;;35.05;12.90;;;17.20;44.60;;;;;;5036145;28;20073;-65
2021/03/18 05:04:43;;;;;;;38.80;12.57;;;17.20;44.90;;;;;;5037214;28;20144;-65
2021/03/18 05:07:13;;;;;;;38.92;13.40;;;17.20;45.30;;;;;;5038028;28;20522;-66
2021/03/18 05:09:42;;;;;;;36.17;12.32;;;17.10;45.40;;;;;;5005973;28;20077;-65
2021/03/18 05:12:10;;;;;;;37.60;12.23;;;17.10;45.60;;;;;;5004506;28;20070;-67
2021/03/18 05:14:37;;;;;;;32.58;13.27;;;17.10;45.60;;;;;;5039704;28;20078;-66
2021/03/18 05:17:05;;;;;;;35.25;11.95;;;17.00;46.00;;;;;;5038059;28;20188;-67
2021/03/18 05:19:32;;;;;;;35.22;11.95;;;16.90;46.20;;;;;;5020210;28;20074;-65
2021/03/18 05:22:00;;;;;;;45.17;12.52;;;16.90;46.30;;;;;;5037750;28;20120;-68
2021/03/18 05:24:28;;;;;;;40.58;12.57;;;16.80;46.40;;;;;;5036464;28;20081;-66
2021/03/18 05:26:55;;;;;;;44.05;12.30;;;16.80;46.70;;;;;;5034885;28;20076;-66
2021/03/18 05:29:21;;;;;;;34.40;12.27;;;16.80;46.90;;;;;;5035097;28;20101;-67
2021/03/18 05:31:48;;;;;;;37.78;12.70;;;16.80;47.10;;;;;;5033741;28;20077;-66
2021/03/18 05:34:15;;;;;;;39.78;12.60;;;16.70;47.30;;;;;;5035225;28;20127;-66
2021/03/18 05:36:42;;;;;;;32.75;11.15;;;16.70;47.40;;;;;;5038295;28;20156;-66
2021/03/18 05:39:09;;;;;;;38.55;10.75;;;16.60;47.40;;;;;;5036788;28;20074;-66
2021/03/18 05:41:36;;;;;;;35.67;10.77;;;16.60;47.20;;;;;;5038582;28;20070;-65
2021/03/18 05:44:08;;;;;;;36.42;10.63;;;16.50;46.80;;;;;;5040095;28;20087;-65
2021/03/18 05:46:35;;;;;;;27.58;10.07;;;16.50;47.50;;;;;;5035667;28;20121;-66
2021/03/18 05:49:03;;;;;;;42.92;11.98;;;16.40;47.70;;;;;;5036181;28;20109;-65
2021/03/18 05:51:33;;;;;;;32.65;11.45;;;16.30;47.90;;;;;;5016807;28;20570;-66
2021/03/18 05:54:03;;;;;;;126.03;14.02;;;16.30;48.50;;;;;;5036716;28;20086;-66
2021/03/18 05:56:30;;;;;;;64.28;12.77;;;16.30;48.60;;;;;;5040488;28;20152;-64
2021/03/18 05:58:59;;;;;;;39.25;11.82;;;16.40;48.50;;;;;;5038018;28;20077;-63
2021/03/18 06:01:26;;;;;;;288.58;24.40;;;16.30;48.90;;;;;;5040606;28;20165;-61
2021/03/18 06:03:52;;;;;;;211.98;22.38;;;16.30;49.20;;;;;;5035269;28;20085;-63
2021/03/18 06:06:21;;;;;;;1222.03;85.47;;;16.30;49.30;;;;;;5038486;28;20069;-64
2021/03/18 06:08:48;;;;;;;1999.90;171.68;;;16.20;49.30;;;;;;5035862;28;20102;-61
2021/03/18 06:11:15;;;;;;;1121.57;83.53;;;16.20;49.50;;;;;;5035999;28;20223;-61
2021/03/18 06:13:42;;;;;;;885.58;66.35;;;16.10;49.80;;;;;;5019863;28;20074;-63
2021/03/18 06:16:09;;;;;;;301.73;28.65;;;16.10;49.70;;;;;;5036358;28;20078;-63
2021/03/18 06:18:37;;;;;;;274.13;26.92;;;16.10;50.00;;;;;;5036138;28;20510;-64
2021/03/18 06:21:04;;;;;;;55.50;14.65;;;16.00;50.10;;;;;;5036298;28;20121;-65
2021/03/18 06:23:32;;;;;;;220.27;24.73;;;16.00;49.90;;;;;;5034449;28;20077;-64
2021/03/18 06:25:59;;;;;;;69.05;12.95;;;16.00;50.40;;;;;;5039323;28;20081;-65
2021/03/18 06:28:31;;;;;;;57.45;11.35;;;16.00;49.90;;;;;;5033335;28;20102;-64
2021/03/18 06:31:11;;;;;;;32.55;9.75;;;15.90;50.10;;;;;;5021363;28;20074;-62
2021/03/18 06:33:43;;;;;;;56.63;10.70;;;15.80;49.80;;;;;;5036971;28;20123;-64
2021/03/18 06:36:30;;;;;;;51.53;9.48;;;15.80;50.00;;;;;;5038116;28;20082;-65
2021/03/18 06:39:07;;;;;;;34.35;9.38;;;15.80;50.00;;;;;;5034525;28;20081;-66
2021/03/18 06:41:35;;;;;;;39.95;9.05;;;15.70;50.00;;;;;;5032607;28;20077;-65
2021/03/18 06:44:07;;;;;;;32.78;9.13;;;15.60;50.00;;;;;;5037557;28;20084;-64
2021/03/18 06:46:40;;;;;;;41.95;8.90;;;15.60;50.00;;;;;;5036261;28;20070;-63
2021/03/18 06:49:14;;;;;;;38.90;9.80;;;15.50;50.20;;;;;;5040287;28;20148;-63
2021/03/18 06:51:42;;;;;;;40.10;8.93;;;15.50;50.40;;;;;;5036549;28;20192;-65
2021/03/18 06:54:21;;;;;;;34.97;9.98;;;15.50;50.60;;;;;;5036724;28;20085;-64
2021/03/18 06:56:59;;;;;;;42.85;12.23;;;15.40;51.10;;;;;;5036706;28;20100;-63
2021/03/18 06:59:34;;;;;;;40.25;13.80;;;15.40;51.00;;;;;;5040883;28;20160;-64
2021/03/18 07:02:04;;;;;;;44.22;14.00;;;15.40;51.20;;;;;;5022019;28;20172;-63
2021/03/18 07:04:51;;;;;;;40.33;13.38;;;15.40;51.10;;;;;;5036776;28;20133;-64
2021/03/18 07:07:20;;;;;;;37.40;12.43;;;15.40;51.30;;;;;;5040469;28;20498;-64
2021/03/18 07:09:50;;;;;;;38.13;10.57;;;15.40;51.60;;;;;;5022866;28;20078;-64
2021/03/18 07:12:31;;;;;;;46.03;11.38;;;15.30;51.80;;;;;;5037651;28;20152;-65
2021/03/18 07:15:01;;;;;;;45.33;12.85;;;15.20;51.90;;;;;;5040382;28;20081;-65
2021/03/18 07:17:36;;;;;;;55.75;13.02;;;15.20;52.10;;;;;;5034858;28;20078;-64
2021/03/18 07:20:13;;;;;;;47.95;13.77;;;15.20;52.30;;;;;;5034671;28;20073;-64
2021/03/18 07:22:51;;;;;;;52.67;12.55;;;15.30;52.50;;;;;;5022671;28;20092;-65
2021/03/18 07:25:22;;;;;;;57.97;12.25;;;15.20;52.50;;;;;;5037964;28;20438;-64
2021/03/18 07:27:52;;;;;;;43.95;12.45;;;15.20;52.90;;;;;;5038673;28;20168;-63
2021/03/18 07:30:33;;;;;;;39.67;11.65;;;15.10;52.80;;;;;;5018021;28;20551;-63
2021/03/18 07:33:00;;;;;;;44.53;12.40;;;15.10;52.80;;;;;;5036202;28;20073;-64
2021/03/18 07:35:28;;;;;;;48.47;12.55;;;15.10;53.30;;;;;;5039946;28;20092;-63
2021/03/18 07:37:55;;;;;;;39.30;11.50;;;15.10;53.70;;;;;;5037455;28;20102;-64
2021/03/18 07:40:23;;;;;;;52.90;12.73;;;15.10;53.70;;;;;;5036226;28;20074;-63
2021/03/18 07:42:52;;;;;;;50.22;13.23;;;15.10;54.00;;;;;;5035633;28;20086;-65
2021/03/18 07:45:21;;;;;;;46.28;12.50;;;15.10;53.90;;;;;;5034421;28;20074;-64
2021/03/18 07:47:49;;;;;;;39.80;11.60;;;15.10;54.10;;;;;;5036970;28;20107;-64
2021/03/18 07:50:21;;;;;;;39.40;11.52;;;15.00;54.10;;;;;;5035548;28;20461;-64
2021/03/18 07:52:49;;;;;;;42.67;11.68;;;14.90;54.10;;;;;;5035056;28;20102;-63
2021/03/18 07:55:19;;;;;;;36.42;11.98;;;14.90;54.30;;;;;;5036264;28;20081;-64
2021/03/18 07:57:52;;;;;;;42.72;11.75;;;14.80;54.50;;;;;;5034603;28;20707;-64
2021/03/18 08:00:24;;;;;;;35.85;12.05;;;14.70;54.70;;;;;;5031753;28;20119;-64
2021/03/18 08:02:52;;;;;;;42.47;12.02;;;14.70;54.70;;;;;;5036366;28;20077;-63
2021/03/18 08:05:38;;;;;;;41.67;11.95;;;14.70;54.90;;;;;;5038637;28;20077;-63
2021/03/18 08:08:06;;;;;;;41.75;12.20;;;14.70;55.00;;;;;;5036417;28;20097;-64
2021/03/18 08:10:33;;;;;;;41.47;12.73;;;14.70;55.30;;;;;;5018420;28;20109;-63
2021/03/18 08:13:05;;;;;;;43.15;11.15;;;14.70;55.30;;;;;;5036300;28;20069;-62
2021/03/18 08:15:34;;;;;;;43.50;11.90;;;14.70;55.40;;;;;;5038365;28;20066;-63
2021/03/18 08:18:22;;;;;;;49.22;12.13;;;14.60;55.60;;;;;;5036484;28;20157;-64
2021/03/18 08:20:49;;;;;;;33.58;12.43;;;14.60;55.80;;;;;;5037865;28;20081;-65
2021/03/18 08:23:24;;;;;;;46.65;13.23;;;14.50;55.90;;;;;;5035292;28;20062;-63
2021/03/18 08:25:55;;;;;;;45.13;12.68;;;14.50;56.30;;;;;;5038976;28;20113;-63
2021/03/18 08:28:37;;;;;;;40.45;13.07;;;14.40;56.40;;;;;;5037677;28;20584;-64
2021/03/18 08:31:05;;;;;;;49.30;14.50;;;14.40;56.50;;;;;;5038577;28;20149;-64
2021/03/18 08:33:37;;;;;;;52.05;14.45;;;14.30;56.50;;;;;;5038147;28;20433;-64
2021/03/18 08:36:21;;;;;;;57.08;17.02;;;14.40;56.70;;;;;;5035695;28;20152;-64
2021/03/18 08:38:50;;;;;;;86.05;20.48;;;14.30;56.60;;;;;;5036036;28;20090;-65
2021/03/18 08:41:31;;;;;;;76.03;21.65;;;14.20;56.40;;;;;;5036904;28;20077;-64
2021/03/18 08:44:20;;;;;;;88.97;25.83;;;14.30;56.40;;;;;;5035316;28;20105;-63
2021/03/18 08:46:57;;;;;;;90.25;27.23;;;14.30;56.30;;;;;;5033707;28;20078;-64
2021/03/18 08:49:29;;;;;;;;;;;14.30;56.40;;;;;;5032701;28;20104;-63
2021/03/18 08:52:00;;;;;;;87.82;30.45;;;14.20;56.40;;;;;;5036395;28;19993;-63
2021/03/18 08:54:39;;;;;;;88.75;31.30;;;14.20;56.40;;;;;;5035742;28;20113;-63
2021/03/18 08:57:20;;;;;;;127.57;33.08;;;14.20;56.50;;;;;;5033101;28;20120;-63
2021/03/18 08:59:51;;;;;;;109.93;34.28;;;14.20;56.50;;;;;;5034517;28;20070;-65
2021/03/18 09:02:24;;;;;;;98.45;36.15;;;14.10;56.30;;;;;;5039077;28;20108;-63
2021/03/18 09:04:51;;;;;;;117.47;34.75;;;14.10;56.50;;;;;;5030791;28;20431;-62
2021/03/18 09:07:29;;;;;;;112.55;36.03;;;14.10;56.40;;;;;;5039094;28;20565;-64
2021/03/18 09:10:09;;;;;;;104.95;36.88;;;14.10;56.50;;;;;;5018807;28;20082;-64
2021/03/18 09:12:42;;;;;;;129.68;38.80;;;14.10;56.60;;;;;;5037982;28;20100;-62
2021/03/18 09:15:16;;;;;;;102.82;36.38;;;14.10;56.40;;;;;;5033502;28;20539;-63
2021/03/18 09:17:45;;;;;;;119.20;38.72;;;14.10;56.40;;;;;;5037363;28;20091;-64
2021/03/18 09:20:14;;;;;;;110.28;38.08;;;14.10;56.70;;;;;;5041203;28;20486;-65
2021/03/18 09:22:41;;;;;;;115.30;37.78;;;14.10;56.80;;;;;;5035406;28;20078;-64
2021/03/18 09:25:09;;;;;;;101.03;35.03;;;14.10;56.90;;;;;;5038367;28;20538;-64
2021/03/18 09:27:44;;;;;;;94.28;32.33;;;14.00;56.80;;;;;;5019309;28;20604;-63
2021/03/18 09:30:23;;;;;;;93.55;30.40;;;14.00;56.60;;;;;;5030770;28;20092;-65
2021/03/18 09:32:51;;;;;;;80.10;28.77;;;13.90;56.70;;;;;;5035650;28;20081;-65
2021/03/18 09:35:20;;;;;;;78.40;28.25;;;13.90;56.90;;;;;;5039188;28;20077;-63
2021/03/18 09:37:48;;;;;;;77.72;27.30;;;13.90;56.70;;;;;;5033551;28;20078;-62
2021/03/18 09:40:16;;;;;;;83.78;26.77;;;13.90;56.70;;;;;;5034117;28;20188;-63
2021/03/18 09:42:43;;;;;;;77.60;25.50;;;14.00;57.00;;;;;;5037237;28;20078;-63
2021/03/18 09:45:17;;;;;;;81.15;26.08;;;13.90;56.90;;;;;;5037164;28;20120;-63
2021/03/18 09:47:49;;;;;;;73.72;23.10;;;13.90;56.80;;;;;;5036033;28;20168;-62
2021/03/18 09:50:16;;;;;;;67.07;22.20;;;13.90;56.90;;;;;;5038063;28;20126;-62
2021/03/18 09:52:43;;;;;;;68.55;21.65;;;13.80;57.00;;;;;;5034504;28;20527;-64
2021/03/18 09:55:15;;;;;;;76.60;21.75;;;13.80;56.90;;;;;;5017105;28;20074;-63
2021/03/18 09:57:42;;;;;;;81.88;20.88;;;13.70;56.80;;;;;;5034384;28;20499;-62
2021/03/18 10:00:10;;;;;;;73.22;22.02;;;13.60;57.10;;;;;;5016975;28;20422;-64
2021/03/18 10:02:38;;;;;;;62.75;20.35;;;13.60;57.20;;;;;;5035142;28;20105;-64
2021/03/18 10:05:06;;;;;;;51.97;19.02;;;13.60;57.30;;;;;;5036465;28;20430;-64
2021/03/18 10:07:34;;;;;;;64.10;18.27;;;13.50;57.30;;;;;;5034367;28;20493;-64
2021/03/18 10:10:01;;;;;;;50.22;16.67;;;13.50;57.40;;;;;;5037233;28;20132;-63
2021/03/18 10:12:29;;;;;;;50.15;16.55;;;13.50;57.30;;;;;;5035840;28;20086;-64
2021/03/18 10:15:08;;;;;;;49.30;16.00;;;13.50;57.30;;;;;;5035724;28;20101;-64
2021/03/18 10:17:39;;;;;;;43.10;16.05;;;13.50;57.60;;;;;;5034133;28;20157;-62
2021/03/18 10:20:29;;;;;;;48.17;15.82;;;13.50;57.70;;;;;;5036319;28;20078;-63
2021/03/18 10:23:08;;;;;;;49.25;14.95;;;13.40;57.30;;;;;;5037890;28;20101;-62
2021/03/18 10:25:37;;;;;;;47.50;15.30;;;13.40;57.70;;;;;;5039504;28;20096;-63
2021/03/18 10:28:10;;;;;;;40.92;14.45;;;13.50;58.00;;;;;;5040382;28;20201;-62
2021/03/18 10:30:45;;;;;;;46.50;14.70;;;13.40;57.80;;;;;;5037281;28;20077;-62
2021/03/18 10:33:26;;;;;;;42.53;14.65;;;13.40;57.60;;;;;;5038974;28;20100;-62
2021/03/18 10:35:53;;;;;;;50.58;14.55;;;13.50;57.90;;;;;;5038055;28;20078;-62
2021/03/18 10:38:31;;;;;;;42.30;13.63;;;13.50;57.90;;;;;;5037808;28;20102;-62
2021/03/18 10:41:09;;;;;;;46.55;14.73;;;13.50;57.80;;;;;;5042829;28;20090;-64
2021/03/18 10:43:42;;;;;;;39.63;12.43;;;13.40;57.70;;;;;;5039854;28;20078;-62
2021/03/18 10:46:14;;;;;;;40.17;13.15;;;13.40;58.00;;;;;;5021608;28;20429;-62
2021/03/18 10:48:45;;;;;;;44.55;13.20;;;13.30;58.10;;;;;;5036608;28;20098;-63
2021/03/18 10:51:15;;;;;;;42.88;12.13;;;13.30;58.20;;;;;;5039551;28;20072;-61
2021/03/18 10:53:44;;;;;;;38.45;10.38;;;13.20;57.60;;;;;;5037009;28;20169;-63
2021/03/18 10:56:17;;;;;;;40.67;10.35;;;13.30;57.60;;;;;;5019003;28;20097;-63
2021/03/18 10:58:45;;;;;;;30.30;10.35;;;13.20;57.20;;;;;;5036090;28;20515;-63
2021/03/18 11:01:23;;;;;;;32.88;9.90;;;13.20;57.80;;;;;;5041077;28;20082;-64
2021/03/18 11:03:50;;;;;;;30.67;9.15;;;13.20;57.30;;;;;;5040647;28;20070;-63
2021/03/18 11:06:24;;;;;;;35.67;9.63;;;13.10;57.10;;;;;;5038023;28;20694;-63
2021/03/18 11:08:56;;;;;;;30.52;9.38;;;13.00;57.00;;;;;;5037003;28;20094;-60
2021/03/18 11:11:28;;;;;;;32.53;8.68;;;13.00;57.10;;;;;;5037163;28;20493;-64
2021/03/18 11:14:26;;;;;;;27.90;8.48;;;12.90;57.10;;;;;;5022897;28;20082;-62
2021/03/18 11:17:07;;;;;;;35.53;8.38;;;13.00;57.20;;;;;;5014253;28;20531;-61
2021/03/18 11:19:34;;;;;;;28.38;7.20;;;13.00;56.90;;;;;;5040520;28;20078;-61
2021/03/18 11:22:05;;;;;;;25.52;6.97;;;13.00;56.90;;;;;;5036819;28;20070;-64
2021/03/18 11:24:32;;;;;;;22.75;6.93;;;13.00;56.60;;;;;;5037399;28;20076;-63
2021/03/18 11:27:02;;;;;;;27.30;6.88;;;12.90;56.30;;;;;;5034876;28;20074;-63
2021/03/18 11:29:31;;;;;;;27.23;6.63;;;12.90;56.00;;;;;;5039713;28;20104;-62
2021/03/18 11:32:00;;;;;;;26.58;6.60;;;12.90;56.00;;;;;;5040895;28;20498;-63
2021/03/18 11:34:32;;;;;;;19.92;6.43;;;12.80;55.90;;;;;;5036679;28;20086;-63
2021/03/18 11:37:07;;;;;;;30.38;6.50;;;12.80;56.10;;;;;;5036957;28;20107;-64
2021/03/18 11:39:34;;;;;;;28.42;8.48;;;12.80;56.70;;;;;;5039782;28;20066;-63
2021/03/18 11:42:02;;;;;;;31.05;6.90;;;12.80;56.30;;;;;;5019899;28;20123;-62
2021/03/18 11:44:30;;;;;;;23.15;6.60;;;12.80;56.30;;;;;;5037107;28;20120;-65
2021/03/18 11:47:01;;;;;;;25.98;7.07;;;12.80;56.40;;;;;;5020859;28;20075;-63
2021/03/18 11:49:28;;;;;;;25.10;7.90;;;12.80;56.70;;;;;;5036480;28;20102;-63
2021/03/18 11:51:54;;;;;;;;;;;12.80;56.50;;;;;;5020476;28;20641;-62
2021/03/18 11:54:20;;;;;;;26.20;7.15;;;12.80;56.60;;;;;;5036804;28;19964;-63
2021/03/18 11:56:47;;;;;;;36.58;7.65;;;12.80;57.00;;;;;;5038262;28;20065;-62
2021/03/18 11:59:20;;;;;;;27.90;7.25;;;12.80;57.00;;;;;;5038809;28;20081;-64
2021/03/18 12:01:47;;;;;;;30.98;7.25;;;12.70;56.60;;;;;;5021304;28;20085;-62
2021/03/18 12:04:13;;;;;;;29.27;7.57;;;12.70;56.80;;;;;;5041811;28;20511;-64
2021/03/18 12:06:40;;;;;;;29.38;7.20;;;12.60;56.90;;;;;;5036194;28;20118;-63
2021/03/18 12:09:07;;;;;;;20.17;6.85;;;12.50;56.70;;;;;;5039544;28;20551;-64
2021/03/18 12:11:35;;;;;;;21.65;7.30;;;12.50;56.60;;;;;;5037027;28;20474;-62
2021/03/18 12:14:02;;;;;;;23.25;6.30;;;12.50;56.40;;;;;;5036325;28;20089;-64
2021/03/18 12:16:29;;;;;;;26.25;6.10;;;12.50;56.10;;;;;;5036184;28;20132;-62
2021/03/18 12:18:55;;;;;;;;;;;12.60;56.00;;;;;;5037625;28;20082;-63
2021/03/18 12:21:22;;;;;;;19.75;6.03;;;12.50;55.70;;;;;;5036012;28;19966;-61
2021/03/18 12:23:49;;;;;;;17.45;5.65;;;12.50;55.90;;;;;;5035506;28;20519;-63
2021/03/18 12:26:16;;;;;;;27.55;5.57;;;12.40;55.10;;;;;;5039447;28;20522;-63
2021/03/18 12:28:42;;;;;;;21.65;5.68;;;12.40;55.20;;;;;;5037532;28;20751;-63
2021/03/18 12:31:08;;;;;;;;;;;12.30;55.20;;;;;;5040158;28;20541;-63
2021/03/18 12:33:35;;;;;;;23.48;5.05;;;12.30;55.70;;;;;;5037998;28;20478;-63
2021/03/18 12:36:01;;;;;;;;;;;12.30;56.30;;;;;;5019050;28;20077;-62
2021/03/18 12:38:27;;;;;;;25.02;6.38;;;12.20;56.30;;;;;;5034576;28;20026;-63
2021/03/18 12:40:54;;;;;;;;;;;12.20;56.10;;;;;;5018698;28;20690;-62
2021/03/18 12:43:21;;;;;;;22.88;5.50;;;12.20;56.30;;;;;;5038691;28;19958;-61
2021/03/18 12:45:49;;;;;;;29.35;5.97;;;12.00;56.20;;;;;;5034185;28;20526;-65
2021/03/18 12:48:16;;;;;;;28.65;6.18;;;12.00;56.30;;;;;;5016367;28;20152;-64
2021/03/18 12:50:43;;;;;;;21.95;5.90;;;12.00;56.40;;;;;;5034961;28;20165;-64